createdAt,value
2022-08-14T00:01:50.297Z,11.85
2022-08-14T00:04:35.409Z,11.43
2022-08-14T00:07:10.767Z,12.50
2022-08-14T00:09:56.259Z,11.63
2022-08-14T00:12:32.994Z,11.02
2022-08-14T00:15:03.176Z,11.57
2022-08-14T00:17:30.219Z,11.73
2022-08-14T00:20:08.616Z,12.00
2022-08-14T00:22:57.201Z,11.15
2022-08-14T00:25:22.947Z,11.45
2022-08-14T00:27:54.221Z,11.63
2022-08-14T00:30:22.422Z,12.10
2022-08-14T00:32:52.106Z,11.65
2022-08-14T00:35:22.905Z,11.98
2022-08-14T00:38:09.759Z,12.07
2022-08-14T00:40:40.011Z,11.95
2022-08-14T00:43:13.630Z,11.27
2022-08-14T00:45:42.681Z,11.20
2022-08-14T00:48:10.475Z,11.32
2022-08-14T00:50:38.138Z,11.68
2022-08-14T00:53:05.725Z,11.77
2022-08-14T00:55:41.662Z,11.68
2022-08-14T01:01:01.557Z,11.27
2022-08-14T01:03:30.712Z,11.38
2022-08-14T01:06:00.594Z,11.63
2022-08-14T01:08:52.198Z,11.23
2022-08-14T01:11:19.490Z,11.23
2022-08-14T01:13:55.696Z,11.93
2022-08-14T01:16:31.136Z,12.18
2022-08-14T01:19:19.838Z,11.10
2022-08-14T01:21:52.849Z,11.05
2022-08-14T01:24:24.601Z,10.85
2022-08-14T01:27:00.334Z,11.40
2022-08-14T01:29:46.420Z,11.48
2022-08-14T01:32:22.777Z,10.80
2022-08-14T01:35:19.617Z,11.60
2022-08-14T01:37:56.602Z,11.02
2022-08-14T01:40:36.414Z,10.75
2022-08-14T01:43:18.435Z,10.88
2022-08-14T01:46:05.702Z,11.02
2022-08-14T01:48:37.671Z,10.63
2022-08-14T01:51:20.343Z,11.38
2022-08-14T01:53:55.818Z,10.73
2022-08-14T01:56:39.135Z,10.38
2022-08-14T01:59:21.460Z,10.80
2022-08-14T02:01:58.703Z,10.68
2022-08-14T02:04:54.775Z,10.63
2022-08-14T02:07:34.292Z,11.10
2022-08-14T02:10:13.057Z,10.93
2022-08-14T02:12:43.526Z,9.95
2022-08-14T02:15:11.586Z,10.27
2022-08-14T02:17:38.942Z,10.15
2022-08-14T02:20:08.609Z,10.38
2022-08-14T02:22:43.869Z,10.65
2022-08-14T02:25:16.749Z,10.23
2022-08-14T02:28:25.936Z,10.63
2022-08-14T02:30:34.783Z,10.95
2022-08-14T02:33:05.800Z,10.65
2022-08-14T02:35:33.199Z,10.00
2022-08-14T02:38:07.311Z,10.20
2022-08-14T02:40:39.200Z,10.18
2022-08-14T02:43:07.942Z,10.35
2022-08-14T02:45:38.425Z,10.77
2022-08-14T02:49:03.722Z,10.10
2022-08-14T02:51:05.299Z,10.20
2022-08-14T02:53:33.634Z,10.30
2022-08-14T02:56:29.507Z,10.63
2022-08-14T02:58:55.797Z,10.65
2022-08-14T03:01:31.068Z,10.38
2022-08-14T03:03:59.571Z,10.50
2022-08-14T03:06:49.057Z,10.82
2022-08-14T03:09:14.805Z,10.85
2022-08-14T03:11:45.016Z,11.30
2022-08-14T03:14:15.541Z,11.43
2022-08-14T03:16:49.411Z,11.43
2022-08-14T03:19:19.648Z,11.07
2022-08-14T03:21:53.038Z,11.40
2022-08-14T03:24:23.247Z,11.48
2022-08-14T03:26:57.588Z,11.18
2022-08-14T03:29:26.236Z,11.23
2022-08-14T03:31:53.698Z,11.20
2022-08-14T03:34:24.604Z,11.55
2022-08-14T03:37:38.639Z,12.05
2022-08-14T03:40:00.365Z,11.27
2022-08-14T03:42:35.745Z,11.48
2022-08-14T03:45:25.666Z,11.23
2022-08-14T03:47:56.091Z,10.50
2022-08-14T03:50:27.781Z,11.50
2022-08-14T03:53:02.773Z,11.20
2022-08-14T03:55:30.650Z,11.55
2022-08-14T03:58:00.613Z,11.07
2022-08-14T04:00:42.995Z,11.57
2022-08-14T04:03:19.587Z,11.55
2022-08-14T04:05:50.464Z,11.35
2022-08-14T04:08:29.278Z,12.52
2022-08-14T04:11:01.025Z,11.45
2022-08-14T04:13:31.649Z,12.13
2022-08-14T04:16:06.818Z,12.48
2022-08-14T04:18:43.454Z,12.32
2022-08-14T04:21:11.643Z,12.43
2022-08-14T04:23:39.623Z,11.80
2022-08-14T04:26:14.299Z,12.63
2022-08-14T04:29:07.409Z,12.93
2022-08-14T04:32:58.175Z,12.57
2022-08-14T04:34:24.083Z,13.07
2022-08-14T04:37:17.438Z,13.02
2022-08-14T04:40:08.624Z,12.13
2022-08-14T04:42:55.225Z,12.50
2022-08-14T04:45:23.804Z,12.52
2022-08-14T04:48:12.731Z,13.13
2022-08-14T04:50:49.064Z,11.55
2022-08-14T04:53:26.462Z,12.73
2022-08-14T04:56:02.191Z,13.10
2022-08-14T04:58:33.832Z,13.02
2022-08-14T05:01:03.782Z,13.15
2022-08-14T05:03:33.476Z,13.00
2022-08-14T05:06:04.577Z,13.40
2022-08-14T05:08:57.040Z,13.70
2022-08-14T05:11:22.169Z,13.38
2022-08-14T05:16:36.980Z,14.20
2022-08-14T05:19:17.996Z,13.15
2022-08-14T05:22:00.976Z,13.20
2022-08-14T05:24:42.420Z,13.57
2022-08-14T05:27:10.557Z,13.65
2022-08-14T05:29:37.557Z,12.75
2022-08-14T05:32:07.670Z,12.75
2022-08-14T05:34:37.595Z,13.63
2022-08-14T05:37:07.502Z,13.25
2022-08-14T05:39:34.377Z,13.88
2022-08-14T05:42:01.253Z,13.40
2022-08-14T05:44:37.196Z,13.60
2022-08-14T05:47:04.442Z,12.82
2022-08-14T05:49:33.713Z,13.80
2022-08-14T05:52:04.418Z,14.45
2022-08-14T05:54:36.849Z,15.02
2022-08-14T05:57:04.874Z,14.52
2022-08-14T05:59:36.762Z,15.13
2022-08-14T06:02:11.073Z,13.77
2022-08-14T06:04:46.441Z,14.13
2022-08-14T06:07:13.500Z,14.50
2022-08-14T06:09:41.768Z,15.30
2022-08-14T06:12:09.904Z,15.23
2022-08-14T06:14:38.781Z,15.38
2022-08-14T06:17:06.294Z,14.43
2022-08-14T06:19:32.977Z,14.95
2022-08-14T06:21:59.911Z,15.73
2022-08-14T06:24:30.604Z,14.77
2022-08-14T06:27:04.633Z,14.70
2022-08-14T06:29:35.057Z,14.65
2022-08-14T06:32:38.258Z,14.25
2022-08-14T06:35:10.215Z,14.30
2022-08-14T06:37:41.280Z,13.57
2022-08-14T06:40:16.605Z,13.57
2022-08-14T06:42:53.787Z,14.88
2022-08-14T06:45:21.772Z,14.20
2022-08-14T06:47:53.802Z,13.40
2022-08-14T06:50:27.656Z,13.88
2022-08-14T06:52:55.746Z,14.10
2022-08-14T06:55:27.932Z,13.95
2022-08-14T06:57:57.791Z,13.68
2022-08-14T07:00:31.066Z,13.75
2022-08-14T07:03:19.297Z,14.38
2022-08-14T07:05:55.738Z,13.77
2022-08-14T07:08:29.695Z,13.88
2022-08-14T07:11:01.311Z,14.25
2022-08-14T07:13:28.611Z,13.10
2022-08-14T07:16:00.467Z,13.52
2022-08-14T07:18:30.234Z,13.70
2022-08-14T07:21:00.073Z,12.90
2022-08-14T07:23:28.053Z,13.95
2022-08-14T07:26:00.261Z,13.10
2022-08-14T07:28:43.140Z,13.93
2022-08-14T07:31:12.336Z,12.52
2022-08-14T07:33:50.477Z,13.15
2022-08-14T07:36:26.942Z,13.30
2022-08-14T07:39:02.767Z,14.65
2022-08-14T07:41:35.762Z,13.80
2022-08-14T07:44:32.141Z,17.00
2022-08-14T07:46:50.547Z,13.48
2022-08-14T07:49:18.312Z,14.05
2022-08-14T07:51:49.298Z,15.27
2022-08-14T07:54:22.840Z,13.30
2022-08-14T07:57:06.413Z,13.15
2022-08-14T07:59:44.361Z,27.20
2022-08-14T08:02:19.737Z,19.23
2022-08-14T08:04:54.072Z,13.80
2022-08-14T08:07:29.455Z,12.55
2022-08-14T08:09:59.700Z,13.63
2022-08-14T08:12:30.864Z,13.77
2022-08-14T08:15:05.867Z,13.13
2022-08-14T08:17:42.605Z,13.43
2022-08-14T08:20:27.087Z,12.55
2022-08-14T08:23:05.990Z,13.35
2022-08-14T08:25:40.021Z,12.75
2022-08-14T08:28:08.938Z,12.82
2022-08-14T08:31:01.551Z,12.77
2022-08-14T08:33:32.390Z,12.43
2022-08-14T08:36:07.863Z,12.35
2022-08-14T08:39:16.953Z,12.52
2022-08-14T08:41:22.635Z,12.27
2022-08-14T08:43:52.473Z,12.30
2022-08-14T08:46:24.008Z,12.40
2022-08-14T08:51:30.928Z,12.50
2022-08-14T08:54:18.456Z,12.52
2022-08-14T08:56:47.430Z,12.27
2022-08-14T08:59:34.076Z,12.68
2022-08-14T09:02:10.417Z,12.43
2022-08-14T09:04:45.434Z,12.27
2022-08-14T09:07:26.166Z,12.68
2022-08-14T09:09:59.496Z,12.23
2022-08-14T09:12:33.407Z,11.45
2022-08-14T09:15:12.669Z,11.48
2022-08-14T09:17:41.609Z,12.00
2022-08-14T09:20:11.519Z,12.07
2022-08-14T09:22:42.500Z,12.35
2022-08-14T09:25:16.078Z,12.23
2022-08-14T09:27:43.040Z,11.55
2022-08-14T09:30:30.548Z,12.13
2022-08-14T09:33:12.830Z,11.00
2022-08-14T09:35:58.051Z,11.50
2022-08-14T09:38:40.791Z,11.00
2022-08-14T09:42:20.765Z,10.82
2022-08-14T09:45:02.085Z,11.43
2022-08-14T09:47:52.638Z,11.30
2022-08-14T09:50:29.847Z,9.95
2022-08-14T09:53:05.773Z,10.80
2022-08-14T09:55:58.465Z,10.85
2022-08-14T09:58:43.886Z,10.52
2022-08-14T10:01:15.812Z,9.68
2022-08-14T10:03:50.320Z,11.73
2022-08-14T10:06:28.358Z,10.10
2022-08-14T10:09:12.118Z,9.38
2022-08-14T10:11:59.060Z,9.70
2022-08-14T10:14:35.032Z,10.38
2022-08-14T10:17:06.007Z,9.70
2022-08-14T10:19:36.474Z,9.95
2022-08-14T10:23:14.631Z,9.82
2022-08-14T10:24:59.771Z,9.90
2022-08-14T10:27:28.135Z,10.20
2022-08-14T10:30:01.533Z,10.32
2022-08-14T10:32:40.164Z,10.57
2022-08-14T10:35:14.474Z,10.48
2022-08-14T10:37:52.311Z,10.00
2022-08-14T10:40:37.606Z,9.52
2022-08-14T10:43:23.224Z,9.80
2022-08-14T10:46:21.898Z,9.60
2022-08-14T10:49:04.075Z,9.25
2022-08-14T10:51:36.079Z,10.23
2022-08-14T10:54:26.335Z,9.73
2022-08-14T10:56:57.301Z,9.90
2022-08-14T10:59:34.983Z,10.05
2022-08-14T11:02:44.655Z,9.07
2022-08-14T11:05:18.747Z,9.38
2022-08-14T11:07:56.556Z,9.73
2022-08-14T11:10:27.795Z,9.85
2022-08-14T11:12:57.936Z,9.48
2022-08-14T11:15:28.229Z,9.88
2022-08-14T11:18:01.316Z,9.13
2022-08-14T11:20:32.446Z,9.60
2022-08-14T11:23:01.215Z,10.27
2022-08-14T11:25:43.521Z,12.00
2022-08-14T11:28:18.951Z,8.88
2022-08-14T11:30:53.611Z,8.95
2022-08-14T11:33:31.013Z,8.77
2022-08-14T11:36:02.654Z,9.00
2022-08-14T11:38:45.996Z,9.40
2022-08-14T11:41:17.328Z,9.18
2022-08-14T11:43:57.793Z,8.43
2022-08-14T11:46:30.752Z,9.10
2022-08-14T11:49:06.590Z,9.50
2022-08-14T11:51:35.980Z,8.85
2022-08-14T11:54:08.373Z,9.20
2022-08-14T11:56:36.632Z,8.68
2022-08-14T11:59:03.951Z,8.82
2022-08-14T12:01:33.516Z,8.77
2022-08-14T12:04:31.916Z,8.95
2022-08-14T12:09:34.278Z,8.82
2022-08-14T12:12:35.096Z,8.95
2022-08-14T12:17:47.484Z,8.93
2022-08-14T12:20:16.479Z,8.88
2022-08-14T12:23:00.671Z,8.93
2022-08-14T12:25:28.991Z,8.82
2022-08-14T12:28:01.750Z,9.00
2022-08-14T12:30:39.449Z,9.10
2022-08-14T12:33:30.991Z,8.95
2022-08-14T12:36:07.421Z,8.75
2022-08-14T12:38:44.031Z,8.20
2022-08-14T12:41:21.617Z,7.90
2022-08-14T12:44:01.943Z,8.40
2022-08-14T12:46:33.897Z,8.02
2022-08-14T12:49:16.166Z,8.60
2022-08-14T12:51:44.790Z,42.72
2022-08-14T12:57:10.435Z,8.45
2022-08-14T12:59:45.613Z,9.23
2022-08-14T13:02:26.968Z,8.02
2022-08-14T13:04:58.127Z,8.40
2022-08-14T13:07:33.262Z,7.85
2022-08-14T13:10:45.727Z,8.52
2022-08-14T13:13:12.431Z,7.80
2022-08-14T13:15:40.436Z,8.52
2022-08-14T13:18:10.586Z,7.90
2022-08-14T13:20:39.421Z,7.90
2022-08-14T13:23:18.217Z,8.00
2022-08-14T13:25:56.241Z,8.50
2022-08-14T13:28:33.009Z,7.95
2022-08-14T13:31:11.153Z,8.25
2022-08-14T13:33:40.636Z,8.25
2022-08-14T13:36:11.062Z,8.32
2022-08-14T13:38:53.653Z,7.72
2022-08-14T13:41:36.117Z,7.75
2022-08-14T13:44:03.974Z,7.63
2022-08-14T13:46:30.966Z,8.15
2022-08-14T13:48:59.902Z,7.80
2022-08-14T13:51:36.120Z,7.90
2022-08-14T13:54:11.507Z,7.55
2022-08-14T13:56:40.801Z,7.72
2022-08-14T13:59:10.267Z,6.88
2022-08-14T14:01:43.812Z,7.32
2022-08-14T14:04:18.138Z,7.80
2022-08-14T14:06:49.381Z,7.85
2022-08-14T14:09:26.106Z,7.28
2022-08-14T14:11:59.651Z,7.70
2022-08-14T14:14:45.089Z,7.05
2022-08-14T14:17:14.374Z,7.10
2022-08-14T14:19:47.732Z,6.72
2022-08-14T14:22:36.109Z,8.23
2022-08-14T14:25:05.465Z,8.32
2022-08-14T14:27:40.738Z,6.97
2022-08-14T14:30:15.105Z,7.70
2022-08-14T14:33:05.302Z,7.40
2022-08-14T14:38:08.650Z,6.95
2022-08-14T14:40:53.787Z,7.10
2022-08-14T14:43:26.373Z,6.53
2022-08-14T14:45:55.210Z,6.45
2022-08-14T14:48:23.595Z,6.45
2022-08-14T14:50:58.494Z,6.28
2022-08-14T14:53:39.134Z,8.03
2022-08-14T14:56:50.364Z,7.93
2022-08-14T14:58:57.810Z,6.60
2022-08-14T15:01:25.434Z,6.97
2022-08-14T15:03:54.702Z,6.25
2022-08-14T15:06:30.488Z,6.53
2022-08-14T15:09:01.940Z,6.18
2022-08-14T15:11:32.447Z,5.85
2022-08-14T15:14:01.134Z,6.05
2022-08-14T15:16:28.572Z,6.28
2022-08-14T15:18:55.657Z,6.43
2022-08-14T15:21:22.847Z,6.18
2022-08-14T15:23:51.575Z,6.10
2022-08-14T15:26:30.976Z,5.65
2022-08-14T15:29:05.775Z,6.07
2022-08-14T15:31:37.066Z,6.20
2022-08-14T15:34:44.706Z,6.60
2022-08-14T15:37:05.944Z,6.25
2022-08-14T15:39:35.787Z,6.30
2022-08-14T15:42:15.782Z,6.28
2022-08-14T15:44:57.252Z,6.03
2022-08-14T15:47:28.371Z,6.40
2022-08-14T15:49:59.389Z,6.10
2022-08-14T15:52:33.023Z,5.77
2022-08-14T15:55:14.580Z,6.40
2022-08-14T15:58:01.646Z,5.90
2022-08-14T16:00:54.097Z,5.90
2022-08-14T16:03:25.345Z,6.05
2022-08-14T16:06:01.201Z,9.02
2022-08-14T16:08:30.117Z,7.03
2022-08-14T16:11:03.001Z,7.32
2022-08-14T16:13:40.444Z,8.93
2022-08-14T16:16:34.802Z,8.50
2022-08-14T16:18:59.686Z,8.18
2022-08-14T16:21:31.567Z,7.45
2022-08-14T16:24:00.725Z,7.10
2022-08-14T16:26:29.782Z,6.95
2022-08-14T16:29:06.420Z,7.60
2022-08-14T16:31:36.776Z,7.43
2022-08-14T16:34:44.512Z,7.00
2022-08-14T16:36:53.422Z,6.90
2022-08-14T16:39:22.602Z,7.30
2022-08-14T16:41:53.598Z,7.47
2022-08-14T16:44:33.852Z,6.75
2022-08-14T16:47:04.138Z,6.72
2022-08-14T16:50:02.606Z,6.82
2022-08-14T16:52:26.467Z,7.30
2022-08-14T16:55:13.880Z,6.85
2022-08-14T16:57:48.305Z,6.68
2022-08-14T17:00:43.739Z,7.32
2022-08-14T17:03:12.881Z,6.70
2022-08-14T17:05:43.423Z,6.95
2022-08-14T17:08:31.812Z,6.80
2022-08-14T17:11:10.533Z,6.78
2022-08-14T17:13:59.468Z,6.50
2022-08-14T17:16:37.619Z,6.68
2022-08-14T17:19:13.555Z,6.43
2022-08-14T17:21:42.713Z,6.60
2022-08-14T17:27:04.272Z,24.35
2022-08-14T17:29:34.762Z,12.10
2022-08-14T17:32:22.183Z,11.23
2022-08-14T17:35:01.870Z,8.05
2022-08-14T17:37:37.623Z,6.88
2022-08-14T17:40:16.682Z,8.70
2022-08-14T17:42:51.378Z,10.48
2022-08-14T17:45:42.857Z,12.95
2022-08-14T17:49:14.753Z,8.05
2022-08-14T17:51:24.063Z,7.70
2022-08-14T17:54:03.017Z,6.97
2022-08-14T17:56:32.735Z,6.82
2022-08-14T17:59:05.272Z,7.40
2022-08-14T18:01:37.319Z,7.45
2022-08-14T18:04:24.924Z,7.55
2022-08-14T18:06:58.837Z,7.45
2022-08-14T18:09:56.910Z,7.60
2022-08-14T18:12:37.084Z,6.60
2022-08-14T18:15:16.522Z,6.72
2022-08-14T18:17:52.730Z,6.80
2022-08-14T18:21:42.513Z,7.13
2022-08-14T18:23:10.475Z,7.00
2022-08-14T18:25:51.604Z,6.88
2022-08-14T18:28:51.739Z,6.72
2022-08-14T18:31:20.835Z,7.25
2022-08-14T18:33:59.372Z,7.18
2022-08-14T18:36:51.240Z,6.43
2022-08-14T18:39:26.436Z,7.38
2022-08-14T18:42:23.578Z,6.97
2022-08-14T18:44:51.118Z,7.40
2022-08-14T18:47:22.075Z,6.95
2022-08-14T18:50:27.535Z,7.15
2022-08-14T18:52:53.664Z,7.28
2022-08-14T18:55:24.285Z,6.85
2022-08-14T18:58:26.624Z,7.38
2022-08-14T19:00:56.043Z,7.25
2022-08-14T19:03:36.333Z,6.93
2022-08-14T19:06:08.979Z,7.93
2022-08-14T19:08:48.547Z,7.65
2022-08-14T19:11:40.628Z,7.35
2022-08-14T19:14:07.950Z,7.68
2022-08-14T19:16:37.271Z,8.23
2022-08-14T19:19:11.678Z,7.85
2022-08-14T19:21:55.122Z,7.75
2022-08-14T19:24:44.050Z,8.13
2022-08-14T19:27:22.930Z,8.50
2022-08-14T19:30:09.738Z,7.63
2022-08-14T19:32:53.144Z,7.93
2022-08-14T19:35:48.936Z,7.38
2022-08-14T19:38:44.816Z,8.63
2022-08-14T19:41:16.273Z,7.43
2022-08-14T19:43:55.880Z,8.05
2022-08-14T19:46:38.962Z,7.80
2022-08-14T19:49:22.997Z,7.78
2022-08-14T19:52:03.824Z,7.65
2022-08-14T19:54:34.616Z,7.63
2022-08-14T19:57:03.837Z,7.82
2022-08-14T19:59:36.595Z,6.88
2022-08-14T20:02:05.975Z,6.78
2022-08-14T20:04:46.327Z,7.85
2022-08-14T20:07:59.403Z,7.35
2022-08-14T20:11:03.747Z,7.40
2022-08-14T20:13:32.976Z,22.20
2022-08-14T20:16:21.339Z,18.35
2022-08-14T20:19:09.630Z,9.75
2022-08-14T20:21:37.187Z,8.45
2022-08-14T20:24:31.543Z,17.23
2022-08-14T20:27:16.776Z,8.98
2022-08-14T20:29:44.877Z,8.50
2022-08-14T20:32:14.856Z,8.90
2022-08-14T20:34:50.992Z,7.22
2022-08-14T20:37:22.110Z,7.13
2022-08-14T20:39:54.591Z,18.45
2022-08-14T20:42:43.907Z,17.77
2022-08-14T20:45:19.844Z,14.45
2022-08-14T20:47:55.803Z,10.45
2022-08-14T20:50:28.974Z,9.05
2022-08-14T20:53:06.021Z,8.00
2022-08-14T20:55:45.410Z,8.05
2022-08-14T20:58:43.898Z,8.30
2022-08-14T21:01:18.687Z,8.38
2022-08-14T21:03:57.194Z,8.90
2022-08-14T21:07:23.539Z,8.55
2022-08-14T21:09:43.778Z,8.77
2022-08-14T21:12:33.537Z,8.70
2022-08-14T21:15:00.875Z,8.50
2022-08-14T21:17:30.210Z,9.27
2022-08-14T21:19:57.374Z,9.23
2022-08-14T21:22:25.620Z,9.20
2022-08-14T21:25:02.369Z,9.77
2022-08-14T21:27:39.932Z,8.30
2022-08-14T21:30:51.910Z,8.85
2022-08-14T21:33:12.326Z,8.65
2022-08-14T21:35:46.613Z,8.23
2022-08-14T21:38:17.976Z,8.70
2022-08-14T21:40:49.700Z,7.93
2022-08-14T21:43:20.472Z,8.30
2022-08-14T21:45:51.907Z,7.85
2022-08-14T21:48:21.886Z,7.70
2022-08-14T21:51:01.520Z,8.00
2022-08-14T21:53:58.397Z,7.25
2022-08-14T21:56:39.037Z,8.02
2022-08-14T21:59:18.418Z,8.73
2022-08-14T22:02:01.035Z,9.07
2022-08-14T22:04:40.161Z,8.80
2022-08-14T22:07:10.704Z,8.48
2022-08-14T22:09:42.968Z,8.30
2022-08-14T22:12:58.409Z,8.50
2022-08-14T22:15:01.843Z,8.65
2022-08-14T22:17:32.332Z,8.30
2022-08-14T22:20:02.624Z,8.27
2022-08-14T22:22:32.169Z,8.63
2022-08-14T22:25:00.913Z,9.45
2022-08-14T22:27:32.164Z,9.82
2022-08-14T22:30:00.182Z,9.02
2022-08-14T22:32:56.909Z,8.43
2022-08-14T22:35:15.824Z,8.80
2022-08-14T22:37:44.417Z,9.13
2022-08-14T22:40:46.398Z,9.30
2022-08-14T22:43:08.476Z,8.75
2022-08-14T22:45:37.848Z,8.73
2022-08-14T22:48:10.954Z,8.50
2022-08-14T22:50:53.152Z,9.30
2022-08-14T22:53:21.103Z,9.20
2022-08-14T22:55:52.159Z,9.80
2022-08-14T22:58:30.356Z,9.40
2022-08-14T23:01:01.381Z,9.43
2022-08-14T23:03:34.076Z,9.63
2022-08-14T23:06:02.265Z,9.98
2022-08-14T23:09:01.486Z,9.50
2022-08-14T23:11:16.163Z,9.80
2022-08-14T23:13:46.367Z,9.60
2022-08-14T23:16:19.634Z,10.23
2022-08-14T23:18:54.100Z,9.30
2022-08-14T23:21:24.122Z,8.80
2022-08-14T23:23:55.050Z,9.40
2022-08-14T23:26:48.148Z,9.43
2022-08-14T23:29:11.795Z,9.25
2022-08-14T23:31:39.933Z,10.52
2022-08-14T23:34:12.067Z,10.25
2022-08-14T23:36:54.514Z,10.43
2022-08-14T23:39:39.084Z,10.48
2022-08-14T23:42:08.906Z,9.85
2022-08-14T23:44:38.191Z,10.77
2022-08-14T23:47:10.870Z,10.40
2022-08-14T23:49:56.944Z,9.98
2022-08-14T23:53:07.364Z,10.68
2022-08-14T23:55:14.470Z,10.82
2022-08-14T23:57:44.228Z,10.48
